createdAt,value
2018-01-23T00:01:50.730Z,26.07
2018-01-23T00:04:19.274Z,30.63
2018-01-23T00:06:47.816Z,30.50
2018-01-23T00:09:16.308Z,30.17
2018-01-23T00:11:44.862Z,32.87
2018-01-23T00:14:13.398Z,22.60
2018-01-23T00:16:41.920Z,26.40
2018-01-23T00:19:10.469Z,23.90
2018-01-23T00:21:39.063Z,26.03
2018-01-23T00:24:07.569Z,29.50
2018-01-23T00:26:36.857Z,21.93
2018-01-23T00:29:05.411Z,46.10
2018-01-23T00:31:33.916Z,59.07
2018-01-23T00:34:02.697Z,47.13
2018-01-23T00:36:31.259Z,37.37
2018-01-23T00:38:59.992Z,35.80
2018-01-23T00:41:28.273Z,31.27
2018-01-23T00:43:57.605Z,28.17
2018-01-23T00:46:25.871Z,25.23
2018-01-23T00:48:54.447Z,21.93
2018-01-23T00:51:22.987Z,18.90
2018-01-23T00:53:51.560Z,22.87
2018-01-23T00:56:20.104Z,23.43
2018-01-23T00:58:48.653Z,19.67
2018-01-23T01:01:17.142Z,21.70
2018-01-23T01:03:45.698Z,23.73
2018-01-23T01:06:14.246Z,18.40
2018-01-23T01:08:42.778Z,20.87
2018-01-23T01:11:11.358Z,21.73
2018-01-23T01:13:39.916Z,21.43
2018-01-23T01:16:08.448Z,25.10
2018-01-23T01:18:37.013Z,24.90
2018-01-23T01:21:05.568Z,21.40
2018-01-23T01:23:34.145Z,19.17
2018-01-23T01:26:02.682Z,23.80
2018-01-23T01:28:32.040Z,25.50
2018-01-23T01:31:00.588Z,26.27
2018-01-23T01:33:29.157Z,18.90
2018-01-23T01:35:57.710Z,22.40
2018-01-23T01:38:26.251Z,22.30
2018-01-23T01:40:54.819Z,20.40
2018-01-23T01:43:23.353Z,31.47
2018-01-23T01:45:51.899Z,30.53
2018-01-23T01:48:20.524Z,23.63
2018-01-23T01:50:49.133Z,25.00
2018-01-23T01:53:17.681Z,20.30
2018-01-23T01:55:46.258Z,28.00
2018-01-23T01:58:14.844Z,15.50
2018-01-23T02:00:43.360Z,16.47
2018-01-23T02:03:11.913Z,18.10
2018-01-23T02:05:40.491Z,17.10
2018-01-23T02:08:08.693Z,17.93
2018-01-23T02:10:38.014Z,21.33
2018-01-23T02:13:06.551Z,16.53
2018-01-23T02:15:35.076Z,14.13
2018-01-23T02:18:03.629Z,16.80
2018-01-23T02:20:32.972Z,17.50
2018-01-23T02:23:01.535Z,21.23
2018-01-23T02:25:30.209Z,14.73
2018-01-23T02:27:59.545Z,17.03
2018-01-23T02:30:28.814Z,15.20
2018-01-23T02:32:58.142Z,12.20
2018-01-23T02:35:26.680Z,17.90
2018-01-23T02:38:05.558Z,13.83
2018-01-23T02:40:34.117Z,23.33
2018-01-23T02:43:02.622Z,14.57
2018-01-23T02:45:31.170Z,15.57
2018-01-23T02:48:00.493Z,13.03
2018-01-23T02:50:29.038Z,12.70
2018-01-23T02:52:57.590Z,11.27
2018-01-23T02:55:26.287Z,9.63
2018-01-23T02:57:54.827Z,12.03
2018-01-23T03:00:23.383Z,15.37
2018-01-23T03:02:52.683Z,11.37
2018-01-23T03:05:21.975Z,13.60
2018-01-23T03:07:51.602Z,12.47
2018-01-23T03:10:20.177Z,17.17
2018-01-23T03:12:48.735Z,16.53
2018-01-23T03:15:17.439Z,19.93
2018-01-23T03:17:46.753Z,13.67
2018-01-23T03:20:15.286Z,12.77
2018-01-23T03:22:43.862Z,17.83
2018-01-23T03:25:12.410Z,15.50
2018-01-23T03:27:40.939Z,12.03
2018-01-23T03:30:09.524Z,13.33
2018-01-23T03:32:38.068Z,15.13
2018-01-23T03:35:07.367Z,16.23
2018-01-23T03:37:35.902Z,11.73
2018-01-23T03:40:04.523Z,17.30
2018-01-23T03:42:33.075Z,15.27
2018-01-23T03:45:02.389Z,14.13
2018-01-23T03:47:30.944Z,12.90
2018-01-23T03:49:59.481Z,18.10
2018-01-23T03:52:28.031Z,16.10
2018-01-23T03:54:56.623Z,10.57
2018-01-23T03:57:25.138Z,15.17
2018-01-23T03:59:53.682Z,11.97
2018-01-23T04:02:23.006Z,10.97
2018-01-23T04:04:51.583Z,10.67
2018-01-23T04:07:20.106Z,13.20
2018-01-23T04:09:48.645Z,11.17
2018-01-23T04:12:17.191Z,18.53
2018-01-23T04:14:45.798Z,15.97
2018-01-23T04:17:14.422Z,16.03
2018-01-23T04:19:42.950Z,14.73
2018-01-23T04:22:11.479Z,15.30
2018-01-23T04:24:40.025Z,20.60
2018-01-23T04:27:09.365Z,17.57
2018-01-23T04:29:37.936Z,16.30
2018-01-23T04:32:06.467Z,16.97
2018-01-23T04:34:34.857Z,16.97
2018-01-23T04:37:03.436Z,16.07
2018-01-23T04:39:31.862Z,18.03
2018-01-23T04:42:01.172Z,14.00
2018-01-23T04:44:29.747Z,15.90
2018-01-23T04:46:59.062Z,14.93
2018-01-23T04:49:27.587Z,18.83
2018-01-23T04:51:56.137Z,23.37
2018-01-23T04:54:24.686Z,16.17
2018-01-23T04:56:53.220Z,19.03
2018-01-23T04:59:21.746Z,15.80
2018-01-23T05:01:50.282Z,15.40
2018-01-23T05:04:18.811Z,19.70
2018-01-23T05:06:47.365Z,17.57
2018-01-23T05:09:16.692Z,19.20
2018-01-23T05:11:45.189Z,20.07
2018-01-23T05:14:13.712Z,23.67
2018-01-23T05:16:42.259Z,18.27
2018-01-23T05:19:10.749Z,20.83
2018-01-23T05:21:39.287Z,24.33
2018-01-23T05:24:08.578Z,19.53
2018-01-23T05:26:37.293Z,18.87
2018-01-23T05:29:05.867Z,24.90
2018-01-23T05:31:34.382Z,19.00
2018-01-23T05:34:02.871Z,18.87
2018-01-23T05:36:31.410Z,25.80
2018-01-23T05:38:59.962Z,18.13
2018-01-23T05:41:28.451Z,20.73
2018-01-23T05:43:57.006Z,27.33
2018-01-23T05:46:25.571Z,24.67
2018-01-23T05:48:54.026Z,19.10
2018-01-23T05:51:22.511Z,19.37
2018-01-23T05:53:50.993Z,23.07
2018-01-23T05:56:19.438Z,20.67
2018-01-23T05:58:47.950Z,15.80
2018-01-23T06:01:17.472Z,24.53
2018-01-23T06:03:45.958Z,26.07
2018-01-23T06:06:14.445Z,24.03
2018-01-23T06:08:42.929Z,20.70
2018-01-23T06:11:11.389Z,20.43
2018-01-23T06:13:39.884Z,24.40
2018-01-23T06:16:08.373Z,27.07
2018-01-23T06:18:36.839Z,20.37
2018-01-23T06:21:05.334Z,23.10
2018-01-23T06:23:33.819Z,23.63
2018-01-23T06:26:03.113Z,25.30
2018-01-23T06:28:31.599Z,33.33
2018-01-23T06:31:00.096Z,21.33
2018-01-23T06:33:28.388Z,28.27
2018-01-23T06:35:56.881Z,59.33
2018-01-23T06:38:26.149Z,219.77
2018-01-23T06:40:54.621Z,294.30
2018-01-23T06:43:23.111Z,137.97
2018-01-23T06:45:51.637Z,60.57
2018-01-23T06:48:20.099Z,61.20
2018-01-23T06:50:49.374Z,40.90
2018-01-23T06:53:22.673Z,27.27
2018-01-23T06:55:51.176Z,23.50
2018-01-23T06:58:20.433Z,22.63
2018-01-23T07:00:48.891Z,22.57
2018-01-23T07:03:17.376Z,29.47
2018-01-23T07:05:45.862Z,20.67
2018-01-23T07:08:14.330Z,23.27
2018-01-23T07:10:43.116Z,22.17
2018-01-23T07:13:11.599Z,27.43
2018-01-23T07:15:40.089Z,24.83
2018-01-23T07:18:08.662Z,29.73
2018-01-23T07:20:37.222Z,27.60
2018-01-23T07:23:05.915Z,28.37
2018-01-23T07:25:34.476Z,27.97
2018-01-23T07:28:03.777Z,24.53
2018-01-23T07:30:33.063Z,22.00
2018-01-23T07:33:04.930Z,22.73
2018-01-23T07:35:33.461Z,22.50
2018-01-23T07:38:01.982Z,22.20
2018-01-23T07:40:30.531Z,29.30
2018-01-23T07:42:59.085Z,16.27
2018-01-23T07:45:27.665Z,20.47
2018-01-23T07:47:56.955Z,23.53
2018-01-23T07:50:26.256Z,24.80
2018-01-23T07:52:55.557Z,21.33
2018-01-23T07:55:24.818Z,21.70
2018-01-23T07:57:53.360Z,22.43
2018-01-23T08:00:21.915Z,19.13
2018-01-23T08:02:51.255Z,29.67
2018-01-23T08:05:19.815Z,29.70
2018-01-23T08:07:48.366Z,22.37
2018-01-23T08:10:16.906Z,28.37
2018-01-23T08:12:45.422Z,22.70
2018-01-23T08:15:13.966Z,28.27
2018-01-23T08:17:45.613Z,26.63
2018-01-23T08:20:14.191Z,37.40
2018-01-23T08:22:44.663Z,24.47
2018-01-23T08:25:12.927Z,20.60
2018-01-23T08:27:41.482Z,23.23
2018-01-23T08:30:11.081Z,27.30
2018-01-23T08:32:39.714Z,21.80
2018-01-23T08:35:08.211Z,22.50
2018-01-23T08:37:36.764Z,21.17
2018-01-23T08:40:08.013Z,21.90
2018-01-23T08:42:36.578Z,23.20
2018-01-23T08:45:04.569Z,23.90
2018-01-23T08:47:34.009Z,21.93
2018-01-23T08:50:03.164Z,23.40
2018-01-23T08:52:31.702Z,20.50
2018-01-23T08:55:00.224Z,21.53
2018-01-23T08:57:28.768Z,20.90
2018-01-23T08:59:57.311Z,21.80
2018-01-23T09:02:26.434Z,36.60
2018-01-23T09:04:55.773Z,23.50
2018-01-23T09:07:24.270Z,18.67
2018-01-23T09:09:52.760Z,18.93
2018-01-23T09:12:21.276Z,13.37
2018-01-23T09:14:50.601Z,18.30
2018-01-23T09:17:19.170Z,16.50
2018-01-23T09:19:47.715Z,20.20
2018-01-23T09:22:16.275Z,16.83
2018-01-23T09:24:44.786Z,18.30
2018-01-23T09:27:13.331Z,18.00
2018-01-23T09:29:42.687Z,13.23
2018-01-23T09:32:11.194Z,23.97
2018-01-23T09:34:39.760Z,15.67
2018-01-23T09:37:09.062Z,22.20
2018-01-23T09:39:38.366Z,21.33
2018-01-23T09:42:07.699Z,16.27
2018-01-23T09:44:36.241Z,21.90
2018-01-23T09:47:05.569Z,19.60
2018-01-23T09:49:34.108Z,16.93
2018-01-23T09:52:02.646Z,18.63
2018-01-23T09:54:31.199Z,15.13
2018-01-23T09:57:00.517Z,12.30
2018-01-23T09:59:29.031Z,12.63
2018-01-23T10:01:57.548Z,15.90
2018-01-23T10:04:26.096Z,12.63
2018-01-23T10:06:54.599Z,14.13
2018-01-23T10:09:23.156Z,15.43
2018-01-23T10:11:51.689Z,18.90
2018-01-23T10:14:20.997Z,18.20
2018-01-23T10:16:50.310Z,14.80
2018-01-23T10:19:23.496Z,13.03
2018-01-23T10:21:52.031Z,15.07
2018-01-23T10:24:20.435Z,12.63
2018-01-23T10:26:49.737Z,17.47
2018-01-23T10:29:18.357Z,11.97
2018-01-23T10:31:50.263Z,10.63
2018-01-23T10:34:26.406Z,18.83
2018-01-23T10:37:00.866Z,17.93
2018-01-23T10:39:38.206Z,15.17
2018-01-23T10:42:14.876Z,18.03
2018-01-23T10:44:43.460Z,14.63
2018-01-23T10:47:15.578Z,19.10
2018-01-23T10:49:44.916Z,13.20
2018-01-23T10:52:13.552Z,17.63
2018-01-23T10:54:43.068Z,18.00
2018-01-23T10:57:11.662Z,11.60
2018-01-23T10:59:40.258Z,16.80
2018-01-23T11:02:08.818Z,16.43
2018-01-23T11:04:38.162Z,20.73
2018-01-23T11:07:06.731Z,21.30
2018-01-23T11:09:35.357Z,14.80
2018-01-23T11:12:03.881Z,17.47
2018-01-23T11:14:32.418Z,20.00
2018-01-23T11:17:00.963Z,20.90
2018-01-23T11:19:29.502Z,16.83
2018-01-23T11:21:58.056Z,14.67
2018-01-23T11:24:26.602Z,17.50
2018-01-23T11:26:55.142Z,12.77
2018-01-23T11:29:24.498Z,19.53
2018-01-23T11:31:53.055Z,18.47
2018-01-23T11:34:21.598Z,21.20
2018-01-23T11:36:50.138Z,16.50
2018-01-23T11:39:18.669Z,16.33
2018-01-23T11:41:48.598Z,14.30
2018-01-23T11:44:17.161Z,17.07
2018-01-23T11:46:45.727Z,14.60
2018-01-23T11:49:14.295Z,13.60
2018-01-23T11:51:42.834Z,14.90
2018-01-23T11:54:12.355Z,14.20
2018-01-23T11:56:40.892Z,14.73
2018-01-23T11:59:09.425Z,16.57
2018-01-23T12:01:37.962Z,12.67
2018-01-23T12:04:14.401Z,19.90
2018-01-23T12:06:42.940Z,19.57
2018-01-23T12:09:12.261Z,17.63
2018-01-23T12:11:40.802Z,23.47
2018-01-23T12:14:14.505Z,13.93
2018-01-23T12:16:48.286Z,17.30
2018-01-23T12:19:21.914Z,15.23
2018-01-23T12:21:50.445Z,14.97
2018-01-23T12:24:18.984Z,16.40
2018-01-23T12:26:47.511Z,19.30
2018-01-23T12:29:16.037Z,21.43
2018-01-23T12:31:44.694Z,33.03
2018-01-23T12:34:14.139Z,20.50
2018-01-23T12:36:43.322Z,21.37
2018-01-23T12:39:11.881Z,16.33
2018-01-23T12:41:40.433Z,21.63
2018-01-23T12:44:09.222Z,25.13
2018-01-23T12:46:37.758Z,25.30
2018-01-23T12:49:06.049Z,19.63
2018-01-23T12:51:35.398Z,21.70
2018-01-23T12:54:03.937Z,23.93
2018-01-23T12:56:33.273Z,14.60
2018-01-23T12:59:02.072Z,20.83
2018-01-23T13:01:30.636Z,16.80
2018-01-23T13:03:59.145Z,20.40
2018-01-23T13:06:27.667Z,19.30
2018-01-23T13:08:56.207Z,25.77
2018-01-23T13:11:24.717Z,17.93
2018-01-23T13:13:53.277Z,16.33
2018-01-23T13:16:21.831Z,20.30
2018-01-23T13:18:50.354Z,15.03
2018-01-23T13:21:18.915Z,17.67
2018-01-23T13:23:47.452Z,18.97
2018-01-23T13:26:16.784Z,18.73
2018-01-23T13:28:45.341Z,18.13
2018-01-23T13:31:14.682Z,15.00
2018-01-23T13:33:43.256Z,20.00
2018-01-23T13:36:15.254Z,20.57
2018-01-23T13:38:43.824Z,20.10
2018-01-23T13:41:12.323Z,14.87
2018-01-23T13:43:40.886Z,14.23
2018-01-23T13:46:09.445Z,17.47
2018-01-23T13:48:37.948Z,14.10
2018-01-23T13:51:06.613Z,15.70
2018-01-23T13:53:35.189Z,18.97
2018-01-23T13:56:03.682Z,16.07
2018-01-23T13:58:32.220Z,15.47
2018-01-23T14:01:01.521Z,19.50
2018-01-23T14:03:30.028Z,17.67
2018-01-23T14:05:58.569Z,19.50
2018-01-23T14:08:27.117Z,18.80
2018-01-23T14:10:55.624Z,11.77
2018-01-23T14:13:24.181Z,19.67
2018-01-23T14:15:52.744Z,17.33
2018-01-23T14:18:21.259Z,14.30
2018-01-23T14:20:49.928Z,21.13
2018-01-23T14:23:18.521Z,16.57
2018-01-23T14:25:47.035Z,20.17
2018-01-23T14:28:15.564Z,14.63
2018-01-23T14:30:44.109Z,13.80
2018-01-23T14:33:13.525Z,15.40
2018-01-23T14:35:42.860Z,15.10
2018-01-23T14:38:11.410Z,17.90
2018-01-23T14:40:40.713Z,12.57
2018-01-23T14:43:09.995Z,15.67
2018-01-23T14:45:39.329Z,13.77
2018-01-23T14:48:07.894Z,13.80
2018-01-23T14:50:36.458Z,16.53
2018-01-23T14:53:05.757Z,12.27
2018-01-23T14:55:34.245Z,17.03
2018-01-23T14:58:03.542Z,17.13
2018-01-23T15:00:39.238Z,18.13
2018-01-23T15:03:12.641Z,13.33
2018-01-23T15:05:41.256Z,16.43
2018-01-23T15:08:09.980Z,13.77
2018-01-23T15:10:42.208Z,14.73
2018-01-23T15:13:10.823Z,15.07
2018-01-23T15:15:40.086Z,20.43
2018-01-23T15:18:08.682Z,16.07
2018-01-23T15:20:37.235Z,12.50
2018-01-23T15:23:05.754Z,17.93
2018-01-23T15:25:35.123Z,16.03
2018-01-23T15:28:07.717Z,19.23
2018-01-23T15:30:36.228Z,15.90
2018-01-23T15:33:05.505Z,10.17
2018-01-23T15:35:34.018Z,13.70
2018-01-23T15:38:02.586Z,12.17
2018-01-23T15:40:32.111Z,11.97
2018-01-23T15:43:00.659Z,11.60
2018-01-23T15:45:29.200Z,12.07
2018-01-23T15:47:57.738Z,14.97
2018-01-23T15:50:39.424Z,19.80
2018-01-23T15:53:08.793Z,14.60
2018-01-23T15:55:37.386Z,14.60
2018-01-23T15:58:06.048Z,17.53
2018-01-23T16:00:34.309Z,13.50
2018-01-23T16:03:06.165Z,12.63
2018-01-23T16:05:34.686Z,12.03
2018-01-23T16:08:05.818Z,12.43
2018-01-23T16:10:34.397Z,17.93
2018-01-23T16:13:02.924Z,16.03
2018-01-23T16:15:31.531Z,11.87
2018-01-23T16:18:00.396Z,15.10
2018-01-23T16:20:28.987Z,17.30
2018-01-23T16:22:57.545Z,14.43
2018-01-23T16:25:26.145Z,12.70
2018-01-23T16:27:55.439Z,22.67
2018-01-23T16:30:24.055Z,14.83
2018-01-23T16:32:52.618Z,15.83
2018-01-23T16:35:25.840Z,14.00
2018-01-23T16:37:54.428Z,13.33
2018-01-23T16:40:22.990Z,10.87
2018-01-23T16:42:52.289Z,11.40
2018-01-23T16:45:21.622Z,13.70
2018-01-23T16:47:50.150Z,15.73
2018-01-23T16:50:19.194Z,16.80
2018-01-23T16:52:47.766Z,17.07
2018-01-23T16:55:16.305Z,20.47
2018-01-23T16:57:45.683Z,13.70
2018-01-23T17:00:14.211Z,13.97
2018-01-23T17:02:43.575Z,17.23
2018-01-23T17:05:12.133Z,14.43
2018-01-23T17:07:40.710Z,11.20
2018-01-23T17:10:09.309Z,13.83
2018-01-23T17:12:37.935Z,12.00
2018-01-23T17:15:07.304Z,15.20
2018-01-23T17:17:35.854Z,15.67
2018-01-23T17:20:04.365Z,13.80
2018-01-23T17:22:32.926Z,18.93
2018-01-23T17:25:01.535Z,17.93
2018-01-23T17:27:30.118Z,329.13
2018-01-23T17:29:58.650Z,164.67
2018-01-23T17:32:27.182Z,36.27
2018-01-23T17:34:55.723Z,34.40
2018-01-23T17:37:23.946Z,23.00
2018-01-23T17:39:52.479Z,17.27
2018-01-23T17:42:20.963Z,12.50
2018-01-23T17:44:49.534Z,14.37
2018-01-23T17:47:18.050Z,9.93
2018-01-23T17:49:47.363Z,18.43
2018-01-23T17:52:15.944Z,18.37
2018-01-23T17:54:44.469Z,70.60
2018-01-23T17:57:13.763Z,14.80
2018-01-23T17:59:42.294Z,11.70
2018-01-23T18:02:10.858Z,15.53
2018-01-23T18:04:39.402Z,13.80
2018-01-23T18:07:07.991Z,15.03
2018-01-23T18:09:37.350Z,14.07
2018-01-23T18:12:05.898Z,14.63
2018-01-23T18:14:35.203Z,13.13
2018-01-23T18:17:03.732Z,12.03
2018-01-23T18:19:32.295Z,13.40
2018-01-23T18:22:00.821Z,13.13
2018-01-23T18:24:29.361Z,8.97
2018-01-23T18:26:57.895Z,19.40
2018-01-23T18:29:27.233Z,11.63
2018-01-23T18:31:55.784Z,13.83
2018-01-23T18:34:25.047Z,14.37
2018-01-23T18:36:53.614Z,14.17
2018-01-23T18:39:22.140Z,12.50
2018-01-23T18:41:51.403Z,13.50
2018-01-23T18:44:19.952Z,13.33
2018-01-23T18:46:48.586Z,12.27
2018-01-23T18:49:17.143Z,14.03
2018-01-23T18:51:45.738Z,12.03
2018-01-23T18:54:14.266Z,18.47
2018-01-23T18:56:42.785Z,13.30
2018-01-23T18:59:11.317Z,16.10
2018-01-23T19:01:40.616Z,13.97
2018-01-23T19:04:09.895Z,12.60
2018-01-23T19:06:38.449Z,11.47
2018-01-23T19:09:07.012Z,23.73
2018-01-23T19:11:35.534Z,10.30
2018-01-23T19:14:04.093Z,9.73
2018-01-23T19:16:32.609Z,14.37
2018-01-23T19:19:01.093Z,12.77
2018-01-23T19:21:29.626Z,14.87
2018-01-23T19:23:58.195Z,10.53
2018-01-23T19:26:26.743Z,12.53
2018-01-23T19:28:55.302Z,8.07
2018-01-23T19:31:23.799Z,8.23
2018-01-23T19:33:52.357Z,16.87
2018-01-23T19:36:20.910Z,39.40
2018-01-23T19:38:49.422Z,27.47
2018-01-23T19:41:17.922Z,17.23
2018-01-23T19:43:46.481Z,18.53
2018-01-23T19:46:17.529Z,12.13
2018-01-23T19:48:46.082Z,12.37
2018-01-23T19:51:14.625Z,8.00
2018-01-23T19:53:43.176Z,11.10
2018-01-23T19:56:11.746Z,10.97
2018-01-23T19:58:40.303Z,8.17
2018-01-23T20:01:09.591Z,8.63
2018-01-23T20:03:38.906Z,8.03
2018-01-23T20:06:07.449Z,10.87
2018-01-23T20:08:35.968Z,9.90
2018-01-23T20:11:04.506Z,11.23
2018-01-23T20:13:33.067Z,10.40
2018-01-23T20:16:01.614Z,26.63
2018-01-23T20:18:30.144Z,16.10
2018-01-23T20:20:58.699Z,11.10
2018-01-23T20:23:27.246Z,24.43
2018-01-23T20:25:56.567Z,18.13
2018-01-23T20:28:25.099Z,31.20
2018-01-23T20:30:53.630Z,10.97
2018-01-23T20:33:22.139Z,17.33
2018-01-23T20:35:50.708Z,17.53
2018-01-23T20:38:19.202Z,16.80
2018-01-23T20:40:47.746Z,8.80
2018-01-23T20:43:17.054Z,11.63
2018-01-23T20:45:46.347Z,11.63
2018-01-23T20:48:14.889Z,9.90
2018-01-23T20:50:43.394Z,11.60
2018-01-23T20:53:11.957Z,10.83
2018-01-23T20:55:40.463Z,11.60
2018-01-23T20:58:08.990Z,12.80
2018-01-23T21:00:37.531Z,12.80
2018-01-23T21:03:06.819Z,9.33
2018-01-23T21:05:35.341Z,9.67
2018-01-23T21:08:03.931Z,12.63
2018-01-23T21:10:32.522Z,13.07
2018-01-23T21:13:01.013Z,9.70
2018-01-23T21:15:29.590Z,14.33
2018-01-23T21:17:58.139Z,11.67
2018-01-23T21:20:26.669Z,13.00
2018-01-23T21:22:55.440Z,11.97
2018-01-23T21:25:23.968Z,14.43
2018-01-23T21:27:52.451Z,13.03
2018-01-23T21:30:21.068Z,13.60
2018-01-23T21:32:49.756Z,9.93
2018-01-23T21:35:18.268Z,8.17
2018-01-23T21:37:46.807Z,10.13
2018-01-23T21:40:15.338Z,8.87
2018-01-23T21:42:43.874Z,10.67
2018-01-23T21:45:13.174Z,9.77
2018-01-23T21:47:41.710Z,10.33
2018-01-23T21:50:10.273Z,12.43
2018-01-23T21:52:38.809Z,9.40
2018-01-23T21:55:08.131Z,11.13
2018-01-23T21:57:36.638Z,11.67
2018-01-23T22:00:05.236Z,13.17
2018-01-23T22:02:33.801Z,11.03
2018-01-23T22:05:02.328Z,12.20
2018-01-23T22:07:30.900Z,11.77
2018-01-23T22:09:59.138Z,12.67
2018-01-23T22:12:27.666Z,13.83
2018-01-23T22:14:56.197Z,9.23
2018-01-23T22:17:24.754Z,10.13
2018-01-23T22:19:53.262Z,12.27
2018-01-23T22:22:21.803Z,10.80
2018-01-23T22:24:51.077Z,10.50
2018-01-23T22:27:19.616Z,10.40
2018-01-23T22:29:48.181Z,10.00
2018-01-23T22:32:16.759Z,10.87
2018-01-23T22:34:46.036Z,11.10
2018-01-23T22:37:14.553Z,8.00
2018-01-23T22:39:43.094Z,9.43
2018-01-23T22:42:11.604Z,9.97
2018-01-23T22:44:40.931Z,11.00
2018-01-23T22:47:09.522Z,14.10
2018-01-23T22:49:38.037Z,12.17
2018-01-23T22:52:06.568Z,9.10
2018-01-23T22:54:35.097Z,15.67
2018-01-23T22:57:03.628Z,11.23
2018-01-23T22:59:32.165Z,11.53
2018-01-23T23:02:00.768Z,11.07
2018-01-23T23:04:29.319Z,11.87
2018-01-23T23:06:57.861Z,9.23
2018-01-23T23:09:26.393Z,9.57
2018-01-23T23:11:54.865Z,9.37
2018-01-23T23:14:23.453Z,10.83
2018-01-23T23:16:51.992Z,7.73
2018-01-23T23:19:20.493Z,12.27
2018-01-23T23:21:49.030Z,10.30
2018-01-23T23:24:17.550Z,11.13
2018-01-23T23:26:46.088Z,15.03
2018-01-23T23:29:14.626Z,12.77
2018-01-23T23:31:43.173Z,10.23
2018-01-23T23:34:12.498Z,12.63
2018-01-23T23:36:41.018Z,8.30
2018-01-23T23:39:09.596Z,9.80
2018-01-23T23:41:38.098Z,9.70
2018-01-23T23:44:06.614Z,10.00
2018-01-23T23:46:35.150Z,9.33
2018-01-23T23:49:03.646Z,19.50
2018-01-23T23:51:32.991Z,11.27
2018-01-23T23:54:01.550Z,10.57
2018-01-23T23:56:30.792Z,10.00
2018-01-23T23:58:59.366Z,12.63
